Maersk Barry — OYJE2 — position and weather

sailwx.info

Track history (hours):
 
Tides and Currents Weather Stations Pressure Air Temp Water Temp Dewpoint Dewpoint Depression Visibility Wind Speed Wind Dir Waves Ship Positions

Maersk Barry

Last reported at 2017-Aug-17 13:14 UTC. Time now 2017-Aug-18 23:50 UTC.
Position N 37°22' E 025°55'.

Length 175 m; draft 9.5 m.

Type: Ship. MMSI: 219127000.

Date/timePositionNaut miles runAvg speedWind from/ knotsBaromVisibWave heightAir tempDewpointWater temp
2017-Aug-17 13:14N 37°22' E 025°55'211.1
2017-Aug-17 13:01N 37°24' E 025°52'611.0
2017-Aug-17 12:30N 37°27' E 025°46'712.1
2017-Aug-17 11:58N 37°33' E 025°44'512.0
2017-Aug-17 11:30N 37°38' E 025°42'611.8
2017-Aug-17 11:00N 37°44' E 025°40'611.7
2017-Aug-17 10:30N 37°49' E 025°37'  
2017-Aug-13 20:44N 43°14' E 030°15'412.1
2017-Aug-13 20:23N 43°18' E 030°17'512.2
2017-Aug-13 20:00N 43°22' E 030°19'612.3
2017-Aug-13 19:30N 43°28' E 030°22'612.3
2017-Aug-13 19:00N 43°34' E 030°25'612.2
2017-Aug-13 18:30N 43°40' E 030°28'612.4
2017-Aug-13 18:00N 43°46' E 030°31'612.3
2017-Aug-13 17:30N 43°51' E 030°33'612.2
2017-Aug-13 17:00N 43°57' E 030°36'612.3
2017-Aug-13 16:30N 44°03' E 030°39'612.5
2017-Aug-13 16:00N 44°09' E 030°42'612.3
2017-Aug-13 15:30N 44°15' E 030°45'612.3
2017-Aug-13 15:00N 44°20' E 030°48'612.3
2017-Aug-13 14:30N 44°26' E 030°51'712.2
2017-Aug-13 13:54N 44°33' E 030°55'512.3
2017-Aug-13 13:30N 44°38' E 030°57'612.4
2017-Aug-13 13:00N 44°43' E 031°01'812.2
2017-Aug-13 12:19N 44°51' E 031°03'412.3
2017-Aug-13 12:00N 44°55' E 031°03'6212.1
2017-Aug-13 06:54N 45°57' E 031°07'612.2
2017-Aug-13 06:25N 46°03' E 031°07'410.9
2017-Aug-13 06:00N 46°07' E 031°04'611.6
2017-Aug-13 05:31N 46°11' E 030°58'611.7
2017-Aug-13 05:01N 46°16' E 030°53'611.4
2017-Aug-13 04:30N 46°18' E 030°45'4 7.6
2017-Aug-13 04:00N 46°19' E 030°40'1 0.0
2017-Aug-12 00:31N 46°20' E 030°39'0 0.0
2017-Aug-10 07:29N 46°20' E 030°39'0 0.6
2017-Aug-10 07:00N 46°20' E 030°40'3 5.0
2017-Aug-10 06:29N 46°19' E 030°43'8 6.0
2017-Aug-10 05:07N 46°12' E 030°49'1 7.6
2017-Aug-10 05:00N 46°11' E 030°50'4 8.1
2017-Aug-10 04:30N 46°09' E 030°55'4 8.5
2017-Aug-10 04:00N 46°07' E 031°00'4 8.4
2017-Aug-10 03:29N 46°06' E 031°07'4 7.9
2017-Aug-10 03:00N 46°06' E 031°12'4 8.0
2017-Aug-10 02:30N 46°03' E 031°16'4 8.1
2017-Aug-10 02:00N 45°60' E 031°20'19 7.1
2017-Aug-09 23:14N 45°40' E 031°21'  
Track history (hours):
 
Tides and Currents Weather Stations Pressure Air Temp Water Temp Dewpoint Dewpoint Depression Visibility Wind Speed Wind Dir Waves Ship Positions

Maersk Barry

Last reported at 2017-Aug-17 13:14 UTC. Time now 2017-Aug-18 23:50 UTC.
Position N 37°22' E 025°55'.

Length 175 m; draft 9.5 m.

Type: Ship. MMSI: 219127000.

Date/timePositionNaut miles runAvg speedWind from/ knotsBaromVisibWave heightAir tempDewpointWater temp
2017-Aug-17 13:14N 37°22' E 025°55'211.1
2017-Aug-17 13:01N 37°24' E 025°52'611.0
2017-Aug-17 12:30N 37°27' E 025°46'712.1
2017-Aug-17 11:58N 37°33' E 025°44'512.0
2017-Aug-17 11:30N 37°38' E 025°42'611.8
2017-Aug-17 11:00N 37°44' E 025°40'611.7
2017-Aug-17 10:30N 37°49' E 025°37'  
2017-Aug-13 20:44N 43°14' E 030°15'412.1
2017-Aug-13 20:23N 43°18' E 030°17'512.2
2017-Aug-13 20:00N 43°22' E 030°19'612.3
2017-Aug-13 19:30N 43°28' E 030°22'612.3
2017-Aug-13 19:00N 43°34' E 030°25'612.2
2017-Aug-13 18:30N 43°40' E 030°28'612.4
2017-Aug-13 18:00N 43°46' E 030°31'612.3
2017-Aug-13 17:30N 43°51' E 030°33'612.2
2017-Aug-13 17:00N 43°57' E 030°36'612.3
2017-Aug-13 16:30N 44°03' E 030°39'612.5
2017-Aug-13 16:00N 44°09' E 030°42'612.3
2017-Aug-13 15:30N 44°15' E 030°45'612.3
2017-Aug-13 15:00N 44°20' E 030°48'612.3
2017-Aug-13 14:30N 44°26' E 030°51'712.2
2017-Aug-13 13:54N 44°33' E 030°55'512.3
2017-Aug-13 13:30N 44°38' E 030°57'612.4
2017-Aug-13 13:00N 44°43' E 031°01'812.2
2017-Aug-13 12:19N 44°51' E 031°03'412.3
2017-Aug-13 12:00N 44°55' E 031°03'6212.1
2017-Aug-13 06:54N 45°57' E 031°07'612.2
2017-Aug-13 06:25N 46°03' E 031°07'410.9
2017-Aug-13 06:00N 46°07' E 031°04'611.6
2017-Aug-13 05:31N 46°11' E 030°58'611.7
2017-Aug-13 05:01N 46°16' E 030°53'611.4
2017-Aug-13 04:30N 46°18' E 030°45'4 7.6
2017-Aug-13 04:00N 46°19' E 030°40'1 0.0
2017-Aug-12 00:31N 46°20' E 030°39'0 0.0
2017-Aug-10 07:29N 46°20' E 030°39'0 0.6
2017-Aug-10 07:00N 46°20' E 030°40'3 5.0
2017-Aug-10 06:29N 46°19' E 030°43'8 6.0
2017-Aug-10 05:07N 46°12' E 030°49'1 7.6
2017-Aug-10 05:00N 46°11' E 030°50'4 8.1
2017-Aug-10 04:30N 46°09' E 030°55'4 8.5
2017-Aug-10 04:00N 46°07' E 031°00'4 8.4
2017-Aug-10 03:29N 46°06' E 031°07'4 7.9
2017-Aug-10 03:00N 46°06' E 031°12'4 8.0
2017-Aug-10 02:30N 46°03' E 031°16'4 8.1
2017-Aug-10 02:00N 45°60' E 031°20'19 7.1
2017-Aug-09 23:14N 45°40' E 031°21'  

Dump ship's entire track history